Terminal Aerodrome Forecast
Issued by NWS

Home | Current Version | Previous Version | Text Only | Print | Product List | Glossary Off
Versions: 1 2 3 4 5 6 7 8 9 10 11 12 13 14 15 16 17 18 19 20 21 22 23 24 25 26 27 28 29 30 31 32 33

000
FTUS43 KGRB 022300
TAFRHI
TAF
KRHI 022331Z 0300/0324 19003KT P6SM SCT200
     FM030700 17005KT P6SM SCT040 BKN080
      TEMPO 0309/0313 2SM -SN SCT012 BKN025
     FM031300 15009KT 1/2SM SN VV006
     FM031800 20007KT 3/4SM -SN BR OVC005
     FM032000 25009KT 3SM -SN BR OVC004
     FM032200 28011G20KT 6SM -SN BKN006 OVC012=

USA.gov is the U.S. government's official web portal to all federal, state and local government web resources and services.